sensor_id;sensor_type;location;lat;lon;timestamp;P1;durP1;ratioP1;P2;durP2;ratioP2
15112;SDS011;7657;50.140;7.076;2023-05-24T00:01:08;12.85;;;3.53;;
15112;SDS011;7657;50.140;7.076;2023-05-24T00:03:35;8.63;;;3.13;;
15112;SDS011;7657;50.140;7.076;2023-05-24T00:06:04;8.68;;;3.40;;
15112;SDS011;7657;50.140;7.076;2023-05-24T00:08:31;8.52;;;3.08;;
15112;SDS011;7657;50.140;7.076;2023-05-24T00:10:58;6.70;;;3.25;;
15112;SDS011;7657;50.140;7.076;2023-05-24T00:13:25;10.30;;;3.08;;
15112;SDS011;7657;50.140;7.076;2023-05-24T00:15:53;7.85;;;3.20;;
15112;SDS011;7657;50.140;7.076;2023-05-24T00:18:20;10.50;;;3.88;;
15112;SDS011;7657;50.140;7.076;2023-05-24T00:20:47;7.50;;;3.10;;
15112;SDS011;7657;50.140;7.076;2023-05-24T00:23:15;8.52;;;3.30;;
15112;SDS011;7657;50.140;7.076;2023-05-24T00:25:42;10.25;;;3.47;;
15112;SDS011;7657;50.140;7.076;2023-05-24T00:28:09;9.98;;;3.10;;
15112;SDS011;7657;50.140;7.076;2023-05-24T00:30:36;7.80;;;4.15;;
15112;SDS011;7657;50.140;7.076;2023-05-24T00:33:04;7.55;;;3.53;;
15112;SDS011;7657;50.140;7.076;2023-05-24T00:35:31;10.52;;;3.40;;
15112;SDS011;7657;50.140;7.076;2023-05-24T00:37:58;8.03;;;4.20;;
15112;SDS011;7657;50.140;7.076;2023-05-24T00:40:25;8.40;;;3.03;;
15112;SDS011;7657;50.140;7.076;2023-05-24T00:42:52;6.30;;;3.20;;
15112;SDS011;7657;50.140;7.076;2023-05-24T00:45:19;8.40;;;3.08;;
15112;SDS011;7657;50.140;7.076;2023-05-24T00:47:46;8.50;;;2.95;;
15112;SDS011;7657;50.140;7.076;2023-05-24T00:50:14;8.88;;;2.97;;
15112;SDS011;7657;50.140;7.076;2023-05-24T00:52:42;8.70;;;3.20;;
15112;SDS011;7657;50.140;7.076;2023-05-24T00:55:09;7.20;;;3.22;;
15112;SDS011;7657;50.140;7.076;2023-05-24T00:57:36;9.30;;;3.55;;
15112;SDS011;7657;50.140;7.076;2023-05-24T01:00:03;8.82;;;3.10;;
15112;SDS011;7657;50.140;7.076;2023-05-24T01:02:32;9.60;;;3.28;;
15112;SDS011;7657;50.140;7.076;2023-05-24T01:04:59;9.83;;;3.70;;
15112;SDS011;7657;50.140;7.076;2023-05-24T01:07:30;8.80;;;2.93;;
15112;SDS011;7657;50.140;7.076;2023-05-24T01:10:08;9.07;;;3.27;;
15112;SDS011;7657;50.140;7.076;2023-05-24T01:12:45;11.17;;;3.13;;
15112;SDS011;7657;50.140;7.076;2023-05-24T01:15:23;8.80;;;3.25;;
15112;SDS011;7657;50.140;7.076;2023-05-24T01:17:58;9.80;;;3.57;;
15112;SDS011;7657;50.140;7.076;2023-05-24T01:20:31;8.17;;;3.00;;
15112;SDS011;7657;50.140;7.076;2023-05-24T01:23:04;7.87;;;3.00;;
15112;SDS011;7657;50.140;7.076;2023-05-24T01:28:29;7.25;;;2.88;;
15112;SDS011;7657;50.140;7.076;2023-05-24T01:30:58;5.53;;;2.72;;
15112;SDS011;7657;50.140;7.076;2023-05-24T01:33:25;7.55;;;3.30;;
15112;SDS011;7657;50.140;7.076;2023-05-24T01:35:52;7.13;;;3.35;;
15112;SDS011;7657;50.140;7.076;2023-05-24T01:38:19;8.27;;;3.28;;
15112;SDS011;7657;50.140;7.076;2023-05-24T01:40:46;6.67;;;2.80;;
15112;SDS011;7657;50.140;7.076;2023-05-24T01:43:20;7.67;;;3.13;;
15112;SDS011;7657;50.140;7.076;2023-05-24T01:45:54;9.67;;;2.77;;
15112;SDS011;7657;50.140;7.076;2023-05-24T01:48:30;10.27;;;3.10;;
15112;SDS011;7657;50.140;7.076;2023-05-24T01:51:11;7.80;;;2.58;;
15112;SDS011;7657;50.140;7.076;2023-05-24T01:53:44;9.02;;;2.80;;
15112;SDS011;7657;50.140;7.076;2023-05-24T01:56:12;7.03;;;2.80;;
15112;SDS011;7657;50.140;7.076;2023-05-24T01:58:42;8.10;;;2.80;;
15112;SDS011;7657;50.140;7.076;2023-05-24T02:01:11;7.65;;;3.35;;
15112;SDS011;7657;50.140;7.076;2023-05-24T02:03:39;6.43;;;2.80;;
15112;SDS011;7657;50.140;7.076;2023-05-24T02:06:06;9.40;;;3.28;;
15112;SDS011;7657;50.140;7.076;2023-05-24T02:08:34;7.47;;;2.70;;
15112;SDS011;7657;50.140;7.076;2023-05-24T02:11:01;8.88;;;2.88;;
15112;SDS011;7657;50.140;7.076;2023-05-24T02:13:28;9.60;;;3.70;;
15112;SDS011;7657;50.140;7.076;2023-05-24T02:15:55;7.90;;;3.33;;
15112;SDS011;7657;50.140;7.076;2023-05-24T02:18:23;13.50;;;3.30;;
15112;SDS011;7657;50.140;7.076;2023-05-24T02:20:50;7.03;;;2.63;;
15112;SDS011;7657;50.140;7.076;2023-05-24T02:23:17;10.73;;;3.50;;
15112;SDS011;7657;50.140;7.076;2023-05-24T02:25:44;9.17;;;3.10;;
15112;SDS011;7657;50.140;7.076;2023-05-24T02:28:10;6.70;;;2.87;;
15112;SDS011;7657;50.140;7.076;2023-05-24T02:30:37;6.40;;;2.63;;
15112;SDS011;7657;50.140;7.076;2023-05-24T02:33:08;5.80;;;2.80;;
15112;SDS011;7657;50.140;7.076;2023-05-24T02:35:36;9.07;;;3.00;;
15112;SDS011;7657;50.140;7.076;2023-05-24T02:38:05;8.97;;;3.20;;
15112;SDS011;7657;50.140;7.076;2023-05-24T02:40:33;9.70;;;2.77;;
15112;SDS011;7657;50.140;7.076;2023-05-24T02:43:00;12.93;;;3.23;;
15112;SDS011;7657;50.140;7.076;2023-05-24T02:45:27;7.77;;;3.10;;
15112;SDS011;7657;50.140;7.076;2023-05-24T02:47:54;6.97;;;2.73;;
15112;SDS011;7657;50.140;7.076;2023-05-24T02:50:21;8.73;;;2.57;;
15112;SDS011;7657;50.140;7.076;2023-05-24T02:52:49;6.77;;;2.90;;
15112;SDS011;7657;50.140;7.076;2023-05-24T02:55:16;8.07;;;3.20;;
15112;SDS011;7657;50.140;7.076;2023-05-24T02:57:43;8.17;;;3.47;;
15112;SDS011;7657;50.140;7.076;2023-05-24T03:00:12;7.83;;;2.90;;
15112;SDS011;7657;50.140;7.076;2023-05-24T03:02:40;10.17;;;2.90;;
15112;SDS011;7657;50.140;7.076;2023-05-24T03:05:07;8.50;;;3.43;;
15112;SDS011;7657;50.140;7.076;2023-05-24T03:07:34;7.67;;;2.50;;
15112;SDS011;7657;50.140;7.076;2023-05-24T03:10:02;8.97;;;3.30;;
15112;SDS011;7657;50.140;7.076;2023-05-24T03:12:30;10.97;;;2.80;;
15112;SDS011;7657;50.140;7.076;2023-05-24T03:14:57;7.97;;;3.13;;
15112;SDS011;7657;50.140;7.076;2023-05-24T03:17:24;8.70;;;2.93;;
15112;SDS011;7657;50.140;7.076;2023-05-24T03:19:51;10.87;;;2.93;;
15112;SDS011;7657;50.140;7.076;2023-05-24T03:22:18;7.47;;;3.07;;
15112;SDS011;7657;50.140;7.076;2023-05-24T03:24:44;8.53;;;2.53;;
15112;SDS011;7657;50.140;7.076;2023-05-24T03:27:14;10.57;;;3.00;;
15112;SDS011;7657;50.140;7.076;2023-05-24T03:29:40;6.57;;;2.50;;
15112;SDS011;7657;50.140;7.076;2023-05-24T03:32:07;9.30;;;3.10;;
15112;SDS011;7657;50.140;7.076;2023-05-24T03:34:34;8.97;;;2.50;;
15112;SDS011;7657;50.140;7.076;2023-05-24T03:37:01;8.60;;;2.63;;
15112;SDS011;7657;50.140;7.076;2023-05-24T03:39:28;7.70;;;2.90;;
15112;SDS011;7657;50.140;7.076;2023-05-24T03:41:55;7.13;;;3.00;;
15112;SDS011;7657;50.140;7.076;2023-05-24T03:44:23;6.63;;;3.10;;
15112;SDS011;7657;50.140;7.076;2023-05-24T03:46:50;7.90;;;2.90;;
15112;SDS011;7657;50.140;7.076;2023-05-24T03:49:17;9.23;;;2.90;;
15112;SDS011;7657;50.140;7.076;2023-05-24T03:51:44;8.63;;;2.47;;
15112;SDS011;7657;50.140;7.076;2023-05-24T03:54:11;9.37;;;2.97;;
15112;SDS011;7657;50.140;7.076;2023-05-24T03:56:38;8.90;;;2.77;;
15112;SDS011;7657;50.140;7.076;2023-05-24T03:59:05;8.17;;;2.57;;
15112;SDS011;7657;50.140;7.076;2023-05-24T04:01:33;12.57;;;3.40;;
15112;SDS011;7657;50.140;7.076;2023-05-24T04:04:00;11.17;;;2.70;;
15112;SDS011;7657;50.140;7.076;2023-05-24T04:06:27;6.73;;;2.83;;
15112;SDS011;7657;50.140;7.076;2023-05-24T04:08:54;8.63;;;2.90;;
15112;SDS011;7657;50.140;7.076;2023-05-24T04:11:22;10.93;;;3.33;;
15112;SDS011;7657;50.140;7.076;2023-05-24T04:13:52;7.83;;;3.23;;
15112;SDS011;7657;50.140;7.076;2023-05-24T04:16:19;8.03;;;3.00;;
15112;SDS011;7657;50.140;7.076;2023-05-24T04:18:49;11.33;;;3.10;;
15112;SDS011;7657;50.140;7.076;2023-05-24T04:21:16;11.30;;;3.10;;
15112;SDS011;7657;50.140;7.076;2023-05-24T04:23:43;9.43;;;3.20;;
15112;SDS011;7657;50.140;7.076;2023-05-24T04:26:10;8.20;;;3.20;;
15112;SDS011;7657;50.140;7.076;2023-05-24T04:28:37;10.83;;;3.00;;
15112;SDS011;7657;50.140;7.076;2023-05-24T04:31:05;10.13;;;3.47;;
15112;SDS011;7657;50.140;7.076;2023-05-24T04:33:33;7.67;;;3.03;;
15112;SDS011;7657;50.140;7.076;2023-05-24T04:36:02;7.30;;;2.80;;
15112;SDS011;7657;50.140;7.076;2023-05-24T04:38:29;7.05;;;2.60;;
15112;SDS011;7657;50.140;7.076;2023-05-24T04:40:58;9.77;;;3.10;;
15112;SDS011;7657;50.140;7.076;2023-05-24T04:43:25;10.97;;;3.20;;
15112;SDS011;7657;50.140;7.076;2023-05-24T04:45:52;8.70;;;3.13;;
15112;SDS011;7657;50.140;7.076;2023-05-24T04:48:19;12.50;;;3.70;;
15112;SDS011;7657;50.140;7.076;2023-05-24T04:50:49;9.93;;;3.10;;
15112;SDS011;7657;50.140;7.076;2023-05-24T04:53:17;8.97;;;2.57;;
15112;SDS011;7657;50.140;7.076;2023-05-24T04:55:44;7.50;;;2.70;;
15112;SDS011;7657;50.140;7.076;2023-05-24T04:58:12;7.77;;;2.97;;
15112;SDS011;7657;50.140;7.076;2023-05-24T05:00:39;9.53;;;3.23;;
15112;SDS011;7657;50.140;7.076;2023-05-24T05:03:06;11.23;;;3.10;;
15112;SDS011;7657;50.140;7.076;2023-05-24T05:05:33;7.50;;;2.83;;
15112;SDS011;7657;50.140;7.076;2023-05-24T05:08:00;7.63;;;3.13;;
15112;SDS011;7657;50.140;7.076;2023-05-24T05:10:29;11.23;;;3.43;;
15112;SDS011;7657;50.140;7.076;2023-05-24T05:12:55;10.73;;;2.83;;
15112;SDS011;7657;50.140;7.076;2023-05-24T05:15:23;9.10;;;2.60;;
15112;SDS011;7657;50.140;7.076;2023-05-24T05:17:50;6.73;;;2.70;;
15112;SDS011;7657;50.140;7.076;2023-05-24T05:20:17;8.15;;;2.90;;
15112;SDS011;7657;50.140;7.076;2023-05-24T05:22:47;7.37;;;2.83;;
15112;SDS011;7657;50.140;7.076;2023-05-24T05:25:14;10.63;;;3.10;;
15112;SDS011;7657;50.140;7.076;2023-05-24T05:27:42;10.37;;;3.10;;
15112;SDS011;7657;50.140;7.076;2023-05-24T05:30:09;10.07;;;2.83;;
15112;SDS011;7657;50.140;7.076;2023-05-24T05:32:37;10.47;;;2.87;;
15112;SDS011;7657;50.140;7.076;2023-05-24T05:35:04;9.43;;;2.97;;
15112;SDS011;7657;50.140;7.076;2023-05-24T05:37:32;11.13;;;3.27;;
15112;SDS011;7657;50.140;7.076;2023-05-24T05:39:58;12.30;;;3.23;;
15112;SDS011;7657;50.140;7.076;2023-05-24T05:42:25;11.13;;;3.00;;
15112;SDS011;7657;50.140;7.076;2023-05-24T05:44:54;7.07;;;2.50;;
15112;SDS011;7657;50.140;7.076;2023-05-24T05:47:21;10.43;;;3.10;;
15112;SDS011;7657;50.140;7.076;2023-05-24T05:49:48;10.77;;;2.90;;
15112;SDS011;7657;50.140;7.076;2023-05-24T05:52:15;9.07;;;2.90;;
15112;SDS011;7657;50.140;7.076;2023-05-24T05:54:41;11.93;;;3.10;;
15112;SDS011;7657;50.140;7.076;2023-05-24T05:57:08;11.23;;;2.63;;
15112;SDS011;7657;50.140;7.076;2023-05-24T05:59:35;9.93;;;2.70;;
15112;SDS011;7657;50.140;7.076;2023-05-24T06:02:04;9.70;;;2.83;;
15112;SDS011;7657;50.140;7.076;2023-05-24T06:04:31;11.00;;;3.47;;
15112;SDS011;7657;50.140;7.076;2023-05-24T06:06:59;8.77;;;2.97;;
15112;SDS011;7657;50.140;7.076;2023-05-24T06:09:26;6.97;;;2.70;;
15112;SDS011;7657;50.140;7.076;2023-05-24T06:11:52;10.65;;;2.97;;
15112;SDS011;7657;50.140;7.076;2023-05-24T06:14:19;11.07;;;2.67;;
15112;SDS011;7657;50.140;7.076;2023-05-24T06:16:49;11.87;;;2.50;;
15112;SDS011;7657;50.140;7.076;2023-05-24T06:19:20;10.27;;;3.10;;
15112;SDS011;7657;50.140;7.076;2023-05-24T06:21:47;13.07;;;3.07;;
15112;SDS011;7657;50.140;7.076;2023-05-24T06:24:15;8.77;;;2.63;;
15112;SDS011;7657;50.140;7.076;2023-05-24T06:26:44;14.30;;;3.30;;
15112;SDS011;7657;50.140;7.076;2023-05-24T06:29:11;7.85;;;2.70;;
15112;SDS011;7657;50.140;7.076;2023-05-24T06:31:39;9.47;;;3.07;;
15112;SDS011;7657;50.140;7.076;2023-05-24T06:34:06;9.52;;;2.88;;
15112;SDS011;7657;50.140;7.076;2023-05-24T06:36:34;12.38;;;3.10;;
15112;SDS011;7657;50.140;7.076;2023-05-24T06:39:05;10.77;;;3.13;;
15112;SDS011;7657;50.140;7.076;2023-05-24T06:41:32;13.90;;;2.93;;
15112;SDS011;7657;50.140;7.076;2023-05-24T06:44:00;12.33;;;2.90;;
15112;SDS011;7657;50.140;7.076;2023-05-24T06:46:26;12.07;;;3.43;;
15112;SDS011;7657;50.140;7.076;2023-05-24T06:48:53;13.93;;;3.33;;
15112;SDS011;7657;50.140;7.076;2023-05-24T06:51:20;12.20;;;3.13;;
15112;SDS011;7657;50.140;7.076;2023-05-24T06:53:49;8.82;;;2.92;;
15112;SDS011;7657;50.140;7.076;2023-05-24T06:56:16;10.48;;;2.75;;
15112;SDS011;7657;50.140;7.076;2023-05-24T06:58:43;10.00;;;2.85;;
15112;SDS011;7657;50.140;7.076;2023-05-24T07:01:09;9.68;;;2.85;;
15112;SDS011;7657;50.140;7.076;2023-05-24T07:03:36;13.30;;;3.35;;
15112;SDS011;7657;50.140;7.076;2023-05-24T07:06:03;9.13;;;3.13;;
15112;SDS011;7657;50.140;7.076;2023-05-24T07:08:31;11.68;;;3.58;;
15112;SDS011;7657;50.140;7.076;2023-05-24T07:10:59;8.52;;;3.40;;
15112;SDS011;7657;50.140;7.076;2023-05-24T07:13:27;9.18;;;3.20;;
15112;SDS011;7657;50.140;7.076;2023-05-24T07:15:54;12.60;;;3.28;;
15112;SDS011;7657;50.140;7.076;2023-05-24T07:18:21;13.13;;;3.30;;
15112;SDS011;7657;50.140;7.076;2023-05-24T07:20:47;10.40;;;3.60;;
15112;SDS011;7657;50.140;7.076;2023-05-24T07:23:14;9.82;;;3.33;;
15112;SDS011;7657;50.140;7.076;2023-05-24T07:25:41;10.82;;;3.78;;
15112;SDS011;7657;50.140;7.076;2023-05-24T07:28:10;10.80;;;3.42;;
15112;SDS011;7657;50.140;7.076;2023-05-24T07:30:38;8.13;;;3.00;;
15112;SDS011;7657;50.140;7.076;2023-05-24T07:33:05;8.25;;;2.83;;
15112;SDS011;7657;50.140;7.076;2023-05-24T07:35:32;8.35;;;2.75;;
15112;SDS011;7657;50.140;7.076;2023-05-24T07:37:59;7.57;;;2.72;;
15112;SDS011;7657;50.140;7.076;2023-05-24T07:40:26;8.52;;;3.10;;
15112;SDS011;7657;50.140;7.076;2023-05-24T07:42:53;9.10;;;3.35;;
15112;SDS011;7657;50.140;7.076;2023-05-24T07:45:21;8.70;;;3.35;;
15112;SDS011;7657;50.140;7.076;2023-05-24T07:47:48;8.10;;;3.67;;
15112;SDS011;7657;50.140;7.076;2023-05-24T07:50:15;11.57;;;3.10;;
15112;SDS011;7657;50.140;7.076;2023-05-24T07:52:42;8.90;;;3.10;;
15112;SDS011;7657;50.140;7.076;2023-05-24T07:55:09;7.70;;;3.20;;
15112;SDS011;7657;50.140;7.076;2023-05-24T07:57:36;13.82;;;3.85;;
15112;SDS011;7657;50.140;7.076;2023-05-24T08:00:03;9.32;;;2.80;;
15112;SDS011;7657;50.140;7.076;2023-05-24T08:02:39;8.18;;;3.03;;
15112;SDS011;7657;50.140;7.076;2023-05-24T08:05:06;8.65;;;3.75;;
15112;SDS011;7657;50.140;7.076;2023-05-24T08:07:34;7.13;;;3.15;;
15112;SDS011;7657;50.140;7.076;2023-05-24T08:10:01;8.38;;;3.03;;
15112;SDS011;7657;50.140;7.076;2023-05-24T08:12:28;10.73;;;3.22;;
15112;SDS011;7657;50.140;7.076;2023-05-24T08:14:55;9.40;;;3.13;;
15112;SDS011;7657;50.140;7.076;2023-05-24T08:17:22;9.18;;;3.53;;
15112;SDS011;7657;50.140;7.076;2023-05-24T08:19:51;7.25;;;2.65;;
15112;SDS011;7657;50.140;7.076;2023-05-24T08:22:18;8.27;;;3.30;;
15112;SDS011;7657;50.140;7.076;2023-05-24T08:24:45;9.27;;;3.30;;
15112;SDS011;7657;50.140;7.076;2023-05-24T08:27:12;9.50;;;3.00;;
15112;SDS011;7657;50.140;7.076;2023-05-24T08:29:39;9.27;;;3.58;;
15112;SDS011;7657;50.140;7.076;2023-05-24T08:32:06;8.40;;;2.97;;
15112;SDS011;7657;50.140;7.076;2023-05-24T08:34:34;8.90;;;3.30;;
15112;SDS011;7657;50.140;7.076;2023-05-24T08:37:03;9.93;;;3.05;;
15112;SDS011;7657;50.140;7.076;2023-05-24T08:39:31;7.45;;;3.00;;
15112;SDS011;7657;50.140;7.076;2023-05-24T08:41:58;7.65;;;3.10;;
15112;SDS011;7657;50.140;7.076;2023-05-24T08:44:25;7.05;;;3.10;;
15112;SDS011;7657;50.140;7.076;2023-05-24T08:46:53;8.45;;;3.25;;
15112;SDS011;7657;50.140;7.076;2023-05-24T08:49:21;8.95;;;3.58;;
15112;SDS011;7657;50.140;7.076;2023-05-24T08:51:49;5.70;;;2.90;;
15112;SDS011;7657;50.140;7.076;2023-05-24T08:54:19;8.55;;;3.13;;
15112;SDS011;7657;50.140;7.076;2023-05-24T08:56:47;7.35;;;3.80;;
15112;SDS011;7657;50.140;7.076;2023-05-24T08:59:14;14.10;;;3.47;;
15112;SDS011;7657;50.140;7.076;2023-05-24T09:01:42;10.32;;;3.40;;
15112;SDS011;7657;50.140;7.076;2023-05-24T09:04:14;11.60;;;3.80;;
15112;SDS011;7657;50.140;7.076;2023-05-24T09:06:41;9.48;;;3.45;;
15112;SDS011;7657;50.140;7.076;2023-05-24T09:09:09;10.60;;;3.17;;
15112;SDS011;7657;50.140;7.076;2023-05-24T09:11:38;8.98;;;3.65;;
15112;SDS011;7657;50.140;7.076;2023-05-24T09:14:07;8.13;;;3.50;;
15112;SDS011;7657;50.140;7.076;2023-05-24T09:16:34;6.80;;;3.55;;
15112;SDS011;7657;50.140;7.076;2023-05-24T09:19:02;12.77;;;3.85;;
15112;SDS011;7657;50.140;7.076;2023-05-24T09:21:28;9.35;;;3.55;;
15112;SDS011;7657;50.140;7.076;2023-05-24T09:23:56;8.00;;;3.55;;
15112;SDS011;7657;50.140;7.076;2023-05-24T09:26:25;10.10;;;3.35;;
15112;SDS011;7657;50.140;7.076;2023-05-24T09:28:55;9.07;;;4.10;;
15112;SDS011;7657;50.140;7.076;2023-05-24T09:31:30;9.70;;;4.40;;
15112;SDS011;7657;50.140;7.076;2023-05-24T09:33:58;12.55;;;4.45;;
15112;SDS011;7657;50.140;7.076;2023-05-24T09:36:26;10.38;;;4.20;;
15112;SDS011;7657;50.140;7.076;2023-05-24T09:39:02;9.45;;;4.30;;
15112;SDS011;7657;50.140;7.076;2023-05-24T09:41:32;8.18;;;3.60;;
15112;SDS011;7657;50.140;7.076;2023-05-24T09:44:00;8.43;;;3.85;;
15112;SDS011;7657;50.140;7.076;2023-05-24T09:46:28;8.98;;;3.80;;
15112;SDS011;7657;50.140;7.076;2023-05-24T09:49:02;8.23;;;3.88;;
15112;SDS011;7657;50.140;7.076;2023-05-24T09:51:31;8.45;;;3.30;;
15112;SDS011;7657;50.140;7.076;2023-05-24T09:54:01;10.15;;;3.92;;
15112;SDS011;7657;50.140;7.076;2023-05-24T09:56:29;10.50;;;3.78;;
15112;SDS011;7657;50.140;7.076;2023-05-24T09:58:57;8.20;;;3.65;;
15112;SDS011;7657;50.140;7.076;2023-05-24T10:01:32;10.70;;;4.13;;
15112;SDS011;7657;50.140;7.076;2023-05-24T10:04:00;9.63;;;4.07;;
15112;SDS011;7657;50.140;7.076;2023-05-24T10:06:30;10.45;;;4.28;;
15112;SDS011;7657;50.140;7.076;2023-05-24T10:09:01;8.95;;;4.05;;
15112;SDS011;7657;50.140;7.076;2023-05-24T10:11:31;10.52;;;4.28;;
15112;SDS011;7657;50.140;7.076;2023-05-24T10:13:58;11.48;;;5.05;;
15112;SDS011;7657;50.140;7.076;2023-05-24T10:16:25;10.15;;;4.75;;
15112;SDS011;7657;50.140;7.076;2023-05-24T10:18:53;11.02;;;4.13;;
15112;SDS011;7657;50.140;7.076;2023-05-24T10:21:20;7.75;;;4.20;;
15112;SDS011;7657;50.140;7.076;2023-05-24T10:23:50;11.80;;;4.15;;
15112;SDS011;7657;50.140;7.076;2023-05-24T10:26:22;11.18;;;4.70;;
15112;SDS011;7657;50.140;7.076;2023-05-24T10:28:51;11.02;;;4.05;;
15112;SDS011;7657;50.140;7.076;2023-05-24T10:31:23;9.40;;;4.32;;
15112;SDS011;7657;50.140;7.076;2023-05-24T10:33:57;8.95;;;4.35;;
15112;SDS011;7657;50.140;7.076;2023-05-24T10:36:26;7.30;;;4.00;;
15112;SDS011;7657;50.140;7.076;2023-05-24T10:38:54;10.48;;;4.07;;
15112;SDS011;7657;50.140;7.076;2023-05-24T10:41:21;10.27;;;4.53;;
15112;SDS011;7657;50.140;7.076;2023-05-24T10:43:51;9.35;;;4.47;;
15112;SDS011;7657;50.140;7.076;2023-05-24T10:46:19;8.57;;;4.10;;
15112;SDS011;7657;50.140;7.076;2023-05-24T10:48:58;12.57;;;4.25;;
15112;SDS011;7657;50.140;7.076;2023-05-24T10:51:30;9.85;;;4.47;;
15112;SDS011;7657;50.140;7.076;2023-05-24T10:54:13;11.82;;;4.40;;
15112;SDS011;7657;50.140;7.076;2023-05-24T10:56:43;12.75;;;4.85;;
15112;SDS011;7657;50.140;7.076;2023-05-24T10:59:20;11.10;;;4.32;;
15112;SDS011;7657;50.140;7.076;2023-05-24T11:01:53;10.40;;;4.38;;
15112;SDS011;7657;50.140;7.076;2023-05-24T11:04:23;11.43;;;4.57;;
15112;SDS011;7657;50.140;7.076;2023-05-24T11:06:53;8.45;;;4.35;;
15112;SDS011;7657;50.140;7.076;2023-05-24T11:09:22;8.55;;;4.10;;
15112;SDS011;7657;50.140;7.076;2023-05-24T11:11:53;14.77;;;4.65;;
15112;SDS011;7657;50.140;7.076;2023-05-24T11:14:22;10.48;;;4.53;;
15112;SDS011;7657;50.140;7.076;2023-05-24T11:16:49;9.77;;;4.53;;
15112;SDS011;7657;50.140;7.076;2023-05-24T11:19:17;8.43;;;4.35;;
15112;SDS011;7657;50.140;7.076;2023-05-24T11:21:47;8.13;;;3.90;;
15112;SDS011;7657;50.140;7.076;2023-05-24T11:24:16;8.02;;;4.18;;
15112;SDS011;7657;50.140;7.076;2023-05-24T11:26:43;6.82;;;3.63;;
15112;SDS011;7657;50.140;7.076;2023-05-24T11:29:11;8.95;;;4.07;;
15112;SDS011;7657;50.140;7.076;2023-05-24T11:31:45;9.73;;;3.83;;
15112;SDS011;7657;50.140;7.076;2023-05-24T11:34:13;8.35;;;4.00;;
15112;SDS011;7657;50.140;7.076;2023-05-24T11:36:41;9.20;;;3.75;;
15112;SDS011;7657;50.140;7.076;2023-05-24T11:39:10;6.82;;;3.67;;
15112;SDS011;7657;50.140;7.076;2023-05-24T11:41:38;8.02;;;3.72;;
15112;SDS011;7657;50.140;7.076;2023-05-24T11:44:05;11.30;;;4.43;;
15112;SDS011;7657;50.140;7.076;2023-05-24T11:46:33;8.27;;;3.67;;
15112;SDS011;7657;50.140;7.076;2023-05-24T11:49:00;7.32;;;4.13;;
15112;SDS011;7657;50.140;7.076;2023-05-24T11:51:28;8.32;;;4.05;;
15112;SDS011;7657;50.140;7.076;2023-05-24T11:53:56;10.00;;;4.20;;
15112;SDS011;7657;50.140;7.076;2023-05-24T11:56:24;7.93;;;3.88;;
15112;SDS011;7657;50.140;7.076;2023-05-24T11:58:54;7.20;;;3.13;;
15112;SDS011;7657;50.140;7.076;2023-05-24T12:01:28;9.95;;;4.05;;
15112;SDS011;7657;50.140;7.076;2023-05-24T12:03:55;10.10;;;4.30;;
15112;SDS011;7657;50.140;7.076;2023-05-24T12:06:22;8.85;;;4.25;;
15112;SDS011;7657;50.140;7.076;2023-05-24T12:08:48;9.10;;;4.10;;
15112;SDS011;7657;50.140;7.076;2023-05-24T12:11:15;9.65;;;4.68;;
15112;SDS011;7657;50.140;7.076;2023-05-24T12:13:44;10.02;;;3.97;;
15112;SDS011;7657;50.140;7.076;2023-05-24T12:16:11;11.85;;;4.10;;
15112;SDS011;7657;50.140;7.076;2023-05-24T12:18:38;8.48;;;4.00;;
15112;SDS011;7657;50.140;7.076;2023-05-24T12:21:07;10.27;;;4.45;;
15112;SDS011;7657;50.140;7.076;2023-05-24T12:23:36;13.07;;;5.82;;
15112;SDS011;7657;50.140;7.076;2023-05-24T12:26:03;7.53;;;4.20;;
15112;SDS011;7657;50.140;7.076;2023-05-24T12:28:34;10.63;;;5.05;;
15112;SDS011;7657;50.140;7.076;2023-05-24T12:31:04;9.70;;;5.22;;
15112;SDS011;7657;50.140;7.076;2023-05-24T12:33:32;9.70;;;4.47;;
15112;SDS011;7657;50.140;7.076;2023-05-24T12:35:59;12.20;;;4.85;;
15112;SDS011;7657;50.140;7.076;2023-05-24T12:38:26;10.52;;;4.43;;
15112;SDS011;7657;50.140;7.076;2023-05-24T12:40:53;9.40;;;5.35;;
15112;SDS011;7657;50.140;7.076;2023-05-24T12:43:20;12.70;;;6.35;;
15112;SDS011;7657;50.140;7.076;2023-05-24T12:45:47;10.88;;;6.65;;
15112;SDS011;7657;50.140;7.076;2023-05-24T12:48:16;12.57;;;6.82;;
15112;SDS011;7657;50.140;7.076;2023-05-24T12:50:43;11.45;;;6.35;;
15112;SDS011;7657;50.140;7.076;2023-05-24T12:53:10;10.48;;;7.00;;
15112;SDS011;7657;50.140;7.076;2023-05-24T12:55:38;13.80;;;7.20;;
15112;SDS011;7657;50.140;7.076;2023-05-24T12:58:06;12.13;;;7.47;;
15112;SDS011;7657;50.140;7.076;2023-05-24T13:00:33;15.45;;;8.77;;
15112;SDS011;7657;50.140;7.076;2023-05-24T13:03:00;16.58;;;9.27;;
15112;SDS011;7657;50.140;7.076;2023-05-24T13:05:28;12.95;;;7.93;;
15112;SDS011;7657;50.140;7.076;2023-05-24T13:07:55;16.10;;;7.95;;
15112;SDS011;7657;50.140;7.076;2023-05-24T13:10:22;14.00;;;8.75;;
15112;SDS011;7657;50.140;7.076;2023-05-24T13:12:50;14.45;;;8.35;;
15112;SDS011;7657;50.140;7.076;2023-05-24T13:15:17;16.85;;;9.05;;
15112;SDS011;7657;50.140;7.076;2023-05-24T13:17:47;13.30;;;8.68;;
15112;SDS011;7657;50.140;7.076;2023-05-24T13:20:14;13.73;;;8.10;;
15112;SDS011;7657;50.140;7.076;2023-05-24T13:22:44;11.75;;;8.27;;
15112;SDS011;7657;50.140;7.076;2023-05-24T13:25:11;12.15;;;6.82;;
15112;SDS011;7657;50.140;7.076;2023-05-24T13:27:37;11.93;;;7.43;;
15112;SDS011;7657;50.140;7.076;2023-05-24T13:30:05;10.85;;;7.10;;
15112;SDS011;7657;50.140;7.076;2023-05-24T13:32:33;9.52;;;6.63;;
15112;SDS011;7657;50.140;7.076;2023-05-24T13:35:00;12.60;;;6.80;;
15112;SDS011;7657;50.140;7.076;2023-05-24T13:37:27;9.85;;;7.05;;
15112;SDS011;7657;50.140;7.076;2023-05-24T13:39:55;14.32;;;7.63;;
15112;SDS011;7657;50.140;7.076;2023-05-24T13:42:22;11.90;;;7.07;;
15112;SDS011;7657;50.140;7.076;2023-05-24T13:44:49;13.05;;;7.63;;
15112;SDS011;7657;50.140;7.076;2023-05-24T13:47:16;13.57;;;7.68;;
15112;SDS011;7657;50.140;7.076;2023-05-24T13:49:43;12.50;;;7.25;;
15112;SDS011;7657;50.140;7.076;2023-05-24T13:52:11;11.52;;;7.05;;
15112;SDS011;7657;50.140;7.076;2023-05-24T13:54:38;19.00;;;7.50;;
15112;SDS011;7657;50.140;7.076;2023-05-24T13:57:06;12.75;;;7.20;;
15112;SDS011;7657;50.140;7.076;2023-05-24T13:59:33;18.65;;;6.75;;
15112;SDS011;7657;50.140;7.076;2023-05-24T14:02:00;13.02;;;6.90;;
15112;SDS011;7657;50.140;7.076;2023-05-24T14:04:27;11.10;;;6.95;;
15112;SDS011;7657;50.140;7.076;2023-05-24T14:06:55;10.68;;;6.40;;
15112;SDS011;7657;50.140;7.076;2023-05-24T14:09:22;10.65;;;6.53;;
15112;SDS011;7657;50.140;7.076;2023-05-24T14:11:50;13.52;;;7.18;;
15112;SDS011;7657;50.140;7.076;2023-05-24T14:14:18;14.52;;;7.43;;
15112;SDS011;7657;50.140;7.076;2023-05-24T14:16:45;12.20;;;7.20;;
15112;SDS011;7657;50.140;7.076;2023-05-24T14:19:15;12.77;;;7.78;;
15112;SDS011;7657;50.140;7.076;2023-05-24T14:21:43;14.63;;;7.53;;
15112;SDS011;7657;50.140;7.076;2023-05-24T14:24:10;12.98;;;7.60;;
15112;SDS011;7657;50.140;7.076;2023-05-24T14:26:37;16.35;;;7.25;;
15112;SDS011;7657;50.140;7.076;2023-05-24T14:29:05;13.05;;;7.82;;
15112;SDS011;7657;50.140;7.076;2023-05-24T14:31:33;15.07;;;7.25;;
15112;SDS011;7657;50.140;7.076;2023-05-24T14:34:06;12.70;;;7.72;;
15112;SDS011;7657;50.140;7.076;2023-05-24T14:36:34;17.00;;;7.80;;
15112;SDS011;7657;50.140;7.076;2023-05-24T14:39:01;14.73;;;7.90;;
15112;SDS011;7657;50.140;7.076;2023-05-24T14:41:28;14.88;;;7.50;;
15112;SDS011;7657;50.140;7.076;2023-05-24T14:43:55;15.20;;;8.98;;
15112;SDS011;7657;50.140;7.076;2023-05-24T14:46:22;13.07;;;7.68;;
15112;SDS011;7657;50.140;7.076;2023-05-24T14:48:51;13.45;;;7.22;;
15112;SDS011;7657;50.140;7.076;2023-05-24T14:51:18;13.82;;;7.22;;
15112;SDS011;7657;50.140;7.076;2023-05-24T14:53:45;14.43;;;7.88;;
15112;SDS011;7657;50.140;7.076;2023-05-24T14:56:13;17.17;;;7.70;;
15112;SDS011;7657;50.140;7.076;2023-05-24T14:58:40;15.32;;;8.43;;
15112;SDS011;7657;50.140;7.076;2023-05-24T15:01:07;15.23;;;9.60;;
15112;SDS011;7657;50.140;7.076;2023-05-24T15:03:34;15.82;;;10.35;;